createdAt,value
2018-04-26T00:01:17.352Z,95458.85
2018-04-26T00:03:45.595Z,95462.95
2018-04-26T00:06:14.598Z,95467.52
2018-04-26T00:08:42.846Z,95478.00
2018-04-26T00:11:11.083Z,95474.51
2018-04-26T00:13:39.325Z,95475.88
2018-04-26T00:16:07.560Z,95467.86
2018-04-26T00:18:35.802Z,95470.70
2018-04-26T00:21:04.037Z,95474.85
2018-04-26T00:23:33.045Z,95484.18
2018-04-26T00:26:01.278Z,95491.22
2018-04-26T00:28:29.798Z,95495.48
2018-04-26T00:30:58.794Z,95487.77
2018-04-26T00:33:27.045Z,95476.45
2018-04-26T00:35:55.576Z,95462.27
2018-04-26T00:38:23.798Z,95481.48
2018-04-26T00:40:52.030Z,95466.87
2018-04-26T00:43:20.274Z,95463.22
2018-04-26T00:45:49.278Z,95464.42
2018-04-26T00:48:17.538Z,95458.58
2018-04-26T00:50:46.537Z,95480.75
2018-04-26T00:53:15.554Z,95486.73
2018-04-26T00:55:43.798Z,95482.17
2018-04-26T00:58:12.802Z,95475.20
2018-04-26T01:00:41.046Z,95482.89
2018-04-26T01:03:09.278Z,95489.20
2018-04-26T01:05:37.643Z,95484.12
2018-04-26T01:08:05.873Z,95486.12
2018-04-26T01:10:34.131Z,95480.58
2018-04-26T01:13:02.362Z,95488.73
2018-04-26T01:15:30.870Z,95487.42
2018-04-26T01:17:59.113Z,95480.86
2018-04-26T01:20:27.350Z,95484.98
2018-04-26T01:22:55.593Z,95484.69
2018-04-26T01:25:23.833Z,95481.83
2018-04-26T01:27:52.842Z,95486.22
2018-04-26T01:30:21.090Z,95479.92
2018-04-26T01:32:50.123Z,95479.20
2018-04-26T01:35:18.338Z,95476.42
2018-04-26T01:37:49.393Z,95464.75
2018-04-26T01:40:18.411Z,95465.31
2018-04-26T01:42:47.436Z,95464.08
2018-04-26T01:45:15.662Z,95460.14
2018-04-26T01:47:44.670Z,95455.08
2018-04-26T01:50:12.935Z,95461.73
2018-04-26T01:52:41.941Z,95465.83
2018-04-26T01:55:10.200Z,95471.28
2018-04-26T01:57:38.433Z,95469.64
2018-04-26T02:00:06.969Z,95474.80
2018-04-26T02:02:35.966Z,95483.49
2018-04-26T02:05:04.205Z,95478.79
2018-04-26T02:07:32.469Z,95480.27
2018-04-26T02:10:00.709Z,95482.05
2018-04-26T02:12:28.952Z,95484.72
2018-04-26T02:14:57.958Z,95493.16
2018-04-26T02:17:26.210Z,95491.91
2018-04-26T02:19:54.454Z,95494.08
2018-04-26T02:22:22.687Z,95498.70
2018-04-26T02:24:51.683Z,95492.78
2018-04-26T02:27:19.934Z,95483.58
2018-04-26T02:29:48.170Z,95492.98
2018-04-26T02:32:16.422Z,95496.94
2018-04-26T02:34:44.662Z,95502.27
2018-04-26T02:37:12.918Z,95497.37
2018-04-26T02:39:41.148Z,95506.94
2018-04-26T02:42:09.398Z,95504.25
2018-04-26T02:44:38.398Z,95501.03
2018-04-26T02:47:06.649Z,95503.08
2018-04-26T02:49:34.895Z,95502.53
2018-04-26T02:52:03.126Z,95504.02
2018-04-26T02:54:31.379Z,95503.66
2018-04-26T02:56:59.688Z,95506.84
2018-04-26T02:59:27.939Z,95509.93
2018-04-26T03:01:56.946Z,95508.95
2018-04-26T03:04:25.194Z,95509.42
2018-04-26T03:06:53.523Z,95519.34
2018-04-26T03:09:22.082Z,95510.59
2018-04-26T03:11:51.075Z,95517.91
2018-04-26T03:14:19.317Z,95515.33
2018-04-26T03:16:47.562Z,95517.60
2018-04-26T03:19:16.102Z,95527.41
2018-04-26T03:21:45.098Z,95528.27
2018-04-26T03:24:14.122Z,95522.77
2018-04-26T03:26:42.349Z,95530.62
2018-04-26T03:29:11.358Z,95530.15
2018-04-26T03:31:40.455Z,95526.13
2018-04-26T03:34:09.519Z,95524.70
2018-04-26T03:36:37.755Z,95520.14
2018-04-26T03:39:05.982Z,95524.39
2018-04-26T03:41:35.294Z,95530.58
2018-04-26T03:44:04.316Z,95540.38
2018-04-26T03:46:32.527Z,95534.08
2018-04-26T03:49:00.770Z,95533.16
2018-04-26T03:51:29.019Z,95539.30
2018-04-26T03:53:58.023Z,95534.73
2018-04-26T03:56:27.194Z,95543.59
2018-04-26T03:58:56.302Z,95546.39
2018-04-26T04:01:42.943Z,95546.05
2018-04-26T04:04:29.210Z,95564.00
2018-04-26T04:06:58.216Z,95565.45
2018-04-26T04:09:26.464Z,95567.75
2018-04-26T04:11:55.496Z,95563.48
2018-04-26T04:14:23.726Z,95574.58
2018-04-26T04:16:52.330Z,95568.59
2018-04-26T04:19:21.326Z,95569.94
2018-04-26T04:21:49.572Z,95580.05
2018-04-26T04:24:17.817Z,95577.11
2018-04-26T04:26:46.354Z,95580.00
2018-04-26T04:29:15.363Z,95585.78
2018-04-26T04:31:43.602Z,95591.27
2018-04-26T04:34:11.850Z,95596.56
2018-04-26T04:36:40.097Z,95613.11
2018-04-26T04:39:08.341Z,95605.96
2018-04-26T04:41:37.348Z,95620.86
2018-04-26T04:44:05.599Z,95617.77
2018-04-26T04:46:34.613Z,95628.51
2018-04-26T04:49:02.858Z,95620.77
2018-04-26T04:51:31.091Z,95626.39
2018-04-26T04:53:59.651Z,95614.55
2018-04-26T04:56:28.650Z,95632.81
2018-04-26T04:58:56.888Z,95622.20
2018-04-26T05:01:25.134Z,95627.73
2018-04-26T05:03:53.380Z,95629.22
2018-04-26T05:06:21.630Z,95636.45
2018-04-26T05:08:50.635Z,95634.04
2018-04-26T05:11:18.878Z,95643.16
2018-04-26T05:13:47.136Z,95652.70
2018-04-26T05:16:15.363Z,95658.34
2018-04-26T05:18:44.371Z,95678.98
2018-04-26T05:21:12.622Z,95686.38
2018-04-26T05:23:41.645Z,95686.53
2018-04-26T05:26:09.883Z,95690.28
2018-04-26T05:28:39.202Z,95697.13
2018-04-26T05:31:07.449Z,95700.73
2018-04-26T05:33:35.692Z,95713.05
2018-04-26T05:36:04.056Z,95719.62
2018-04-26T05:38:32.298Z,95718.25
2018-04-26T05:41:01.341Z,95717.44
2018-04-26T05:43:29.582Z,95719.13
2018-04-26T05:45:58.758Z,95714.70
2018-04-26T05:48:27.770Z,95714.02
2018-04-26T05:50:56.064Z,95710.09
2018-04-26T05:53:24.638Z,95722.47
2018-04-26T05:55:53.612Z,95727.44
2018-04-26T05:58:21.790Z,95733.70
2018-04-26T06:00:50.038Z,95738.36
2018-04-26T06:03:19.046Z,95732.66
2018-04-26T06:05:48.361Z,95740.05
2018-04-26T06:08:16.602Z,95745.30
2018-04-26T06:10:44.833Z,95746.91
2018-04-26T06:13:13.077Z,95744.39
2018-04-26T06:15:42.094Z,95749.27
2018-04-26T06:18:10.345Z,95753.16
2018-04-26T06:20:39.341Z,95756.34
2018-04-26T06:23:08.358Z,95761.30
2018-04-26T06:25:36.600Z,95755.71
2018-04-26T06:28:05.602Z,95754.08
2018-04-26T06:30:34.623Z,95750.13
2018-04-26T06:33:02.858Z,95753.38
2018-04-26T06:35:31.865Z,95757.48
2018-04-26T06:38:00.870Z,95757.03
2018-04-26T06:40:29.549Z,95756.48
2018-04-26T06:42:57.786Z,95751.12
2018-04-26T06:45:26.022Z,95747.84
2018-04-26T06:47:54.323Z,95750.80
2018-04-26T06:50:22.510Z,95755.33
2018-04-26T06:52:51.542Z,95749.38
2018-04-26T06:55:19.787Z,95753.30
2018-04-26T06:57:48.059Z,95756.13
2018-04-26T07:00:16.290Z,95750.58
2018-04-26T07:02:44.539Z,95751.62
2018-04-26T07:05:13.554Z,95756.44
2018-04-26T07:07:41.790Z,95767.08
2018-04-26T07:10:10.022Z,95765.31
2018-04-26T07:12:38.274Z,95763.40
2018-04-26T07:15:06.511Z,95768.91
2018-04-26T07:17:34.754Z,95772.61
2018-04-26T07:20:03.018Z,95766.00
2018-04-26T07:22:31.250Z,95768.42
2018-04-26T07:25:00.254Z,95779.98
2018-04-26T07:27:29.290Z,95774.91
2018-04-26T07:29:57.533Z,95767.71
2018-04-26T07:32:25.781Z,95771.44
2018-04-26T07:34:54.030Z,95787.64
2018-04-26T07:37:22.246Z,95792.13
2018-04-26T07:39:50.498Z,95800.89
2018-04-26T07:42:18.774Z,95802.19
2018-04-26T07:44:47.027Z,95808.22
2018-04-26T07:47:15.304Z,95813.38
2018-04-26T07:49:43.528Z,95816.47
2018-04-26T07:52:12.544Z,95818.08
2018-04-26T07:54:40.774Z,95824.64
2018-04-26T07:57:09.783Z,95827.02
2018-04-26T07:59:38.809Z,95820.49
2018-04-26T08:02:07.289Z,95827.34
2018-04-26T08:04:35.520Z,95825.69
2018-04-26T08:07:04.749Z,95838.69
2018-04-26T08:09:32.986Z,95828.70
2018-04-26T08:12:01.227Z,95817.41
2018-04-26T08:14:29.768Z,95814.21
2018-04-26T08:16:58.766Z,95816.67
2018-04-26T08:19:27.007Z,95822.81
2018-04-26T08:21:55.254Z,95830.38
2018-04-26T08:24:24.437Z,95832.83
2018-04-26T08:26:52.687Z,95840.73
2018-04-26T08:29:20.988Z,95828.14
2018-04-26T08:31:49.214Z,95830.57
2018-04-26T08:34:17.488Z,95835.02
2018-04-26T08:36:45.799Z,95838.70
2018-04-26T08:39:13.958Z,95843.84
2018-04-26T08:41:43.002Z,95849.36
2018-04-26T08:44:11.564Z,95843.61
2018-04-26T08:46:39.798Z,95847.35
2018-04-26T08:49:08.902Z,95853.14
2018-04-26T08:51:37.913Z,95854.33
2018-04-26T08:54:06.159Z,95854.48
2018-04-26T08:56:34.412Z,95855.45
2018-04-26T08:59:02.648Z,95848.13
2018-04-26T09:01:30.886Z,95853.56
2018-04-26T09:03:59.889Z,95850.06
2018-04-26T09:06:28.906Z,95863.24
2018-04-26T09:08:57.153Z,95863.47
2018-04-26T09:11:26.157Z,95853.14
2018-04-26T09:13:55.172Z,95850.70
2018-04-26T09:16:23.411Z,95845.95
2018-04-26T09:18:52.417Z,95837.25
2018-04-26T09:21:21.435Z,95838.23
2018-04-26T09:23:49.670Z,95854.90
2018-04-26T09:26:18.069Z,95844.69
2018-04-26T09:28:47.073Z,95844.47
2018-04-26T09:31:15.300Z,95837.50
2018-04-26T09:33:43.545Z,95837.22
2018-04-26T09:36:11.786Z,95836.59
2018-04-26T09:38:40.860Z,95842.08
2018-04-26T09:41:09.030Z,95834.94
2018-04-26T09:43:37.271Z,95841.23
2018-04-26T09:46:05.511Z,95837.68
2018-04-26T09:48:33.823Z,95842.22
2018-04-26T09:51:02.039Z,95840.80
2018-04-26T09:53:30.313Z,95844.42
2018-04-26T09:55:58.610Z,95855.02
2018-04-26T09:58:27.692Z,95842.33
2018-04-26T10:00:55.859Z,95843.17
2018-04-26T10:03:29.074Z,95847.36
2018-04-26T10:05:58.082Z,95851.55
2018-04-26T10:08:26.322Z,95845.08
2018-04-26T10:10:55.330Z,95839.45
2018-04-26T10:13:24.334Z,95842.22
2018-04-26T10:15:52.594Z,95846.66
2018-04-26T10:18:21.594Z,95837.41
2018-04-26T10:20:50.601Z,95840.86
2018-04-26T10:23:18.861Z,95839.95
2018-04-26T10:25:47.857Z,95846.63
2018-04-26T10:28:16.114Z,95841.29
2018-04-26T10:30:44.346Z,95839.64
2018-04-26T10:33:12.606Z,95840.37
2018-04-26T10:35:40.833Z,95835.91
2018-04-26T10:38:09.441Z,95845.06
2018-04-26T10:40:38.442Z,95840.34
2018-04-26T10:43:06.682Z,95835.67
2018-04-26T10:45:34.925Z,95842.97
2018-04-26T10:48:03.173Z,95842.80
2018-04-26T10:50:31.406Z,95839.73
2018-04-26T10:53:00.139Z,95833.88
2018-04-26T10:55:28.315Z,95834.72
2018-04-26T10:57:56.549Z,95834.00
2018-04-26T11:00:24.792Z,95828.66
2018-04-26T11:02:53.030Z,95827.38
2018-04-26T11:05:21.282Z,95831.92
2018-04-26T11:07:50.273Z,95827.06
2018-04-26T11:10:19.295Z,95831.92
2018-04-26T11:12:47.585Z,95827.23
2018-04-26T11:15:15.814Z,95826.95
2018-04-26T11:17:44.058Z,95826.02
2018-04-26T11:20:12.322Z,95828.83
2018-04-26T11:22:40.564Z,95827.55
2018-04-26T11:25:09.577Z,95828.55
2018-04-26T11:27:37.822Z,95828.19
2018-04-26T11:30:06.840Z,95833.78
2018-04-26T11:32:35.071Z,95828.28
2018-04-26T11:35:03.368Z,95825.17
2018-04-26T11:37:32.385Z,95834.52
2018-04-26T11:40:00.654Z,95824.32
2018-04-26T11:42:28.878Z,95826.80
2018-04-26T11:44:57.129Z,95820.78
2018-04-26T11:47:25.362Z,95824.23
2018-04-26T11:49:54.567Z,95819.72
2018-04-26T11:52:23.681Z,95811.95
2018-04-26T11:54:52.241Z,95817.17
2018-04-26T11:57:21.341Z,95810.14
2018-04-26T11:59:50.353Z,95817.33
2018-04-26T12:02:18.675Z,95827.12
2018-04-26T12:04:47.613Z,95815.86
2018-04-26T12:07:15.859Z,95812.62
2018-04-26T12:09:44.093Z,95809.79
2018-04-26T12:12:12.339Z,95810.30
2018-04-26T12:14:40.581Z,95807.45
2018-04-26T12:17:08.813Z,95816.63
2018-04-26T12:19:37.369Z,95812.93
2018-04-26T12:22:05.601Z,95809.50
2018-04-26T12:24:33.841Z,95807.09
2018-04-26T12:27:02.194Z,95808.70
2018-04-26T12:29:31.188Z,95811.26
2018-04-26T12:31:59.437Z,95806.83
2018-04-26T12:34:27.674Z,95807.50
2018-04-26T12:36:55.944Z,95799.75
2018-04-26T12:39:24.177Z,95799.22
2018-04-26T12:41:53.174Z,95794.64
2018-04-26T12:44:22.191Z,95801.87
2018-04-26T12:46:50.418Z,95801.05
2018-04-26T12:49:18.674Z,95795.51
2018-04-26T12:51:46.911Z,95800.30
2018-04-26T12:54:15.150Z,95797.12
2018-04-26T12:56:43.394Z,95809.64
2018-04-26T12:59:11.640Z,95804.47
2018-04-26T13:01:40.002Z,95797.16
2018-04-26T13:04:08.250Z,95802.53
2018-04-26T13:06:37.258Z,95798.27
2018-04-26T13:09:06.367Z,95789.68
2018-04-26T13:11:35.385Z,95789.73
2018-04-26T13:14:03.637Z,95795.34
2018-04-26T13:16:32.118Z,95791.87
2018-04-26T13:19:00.362Z,95791.22
2018-04-26T13:21:28.637Z,95793.48
2018-04-26T13:23:56.842Z,95792.38
2018-04-26T13:26:25.864Z,95782.83
2018-04-26T13:28:54.150Z,95782.87
2018-04-26T13:31:22.399Z,95777.63
2018-04-26T13:33:50.687Z,95782.23
2018-04-26T13:36:19.010Z,95791.09
2018-04-26T13:38:47.947Z,95781.94
2018-04-26T13:41:16.181Z,95779.01
2018-04-26T13:43:44.433Z,95787.88
2018-04-26T13:46:12.699Z,95779.17
2018-04-26T13:48:40.930Z,95766.45
2018-04-26T13:51:09.952Z,95765.63
2018-04-26T13:53:38.189Z,95771.25
2018-04-26T13:56:07.196Z,95773.59
2018-04-26T13:58:35.425Z,95778.16
2018-04-26T14:01:04.155Z,95773.72
2018-04-26T14:03:33.162Z,95774.70
2018-04-26T14:06:02.152Z,95777.30
2018-04-26T14:08:30.385Z,95775.44
2018-04-26T14:10:58.637Z,95783.64
2018-04-26T14:13:26.869Z,95783.50
2018-04-26T14:15:55.122Z,95775.84
2018-04-26T14:18:23.358Z,95774.91
2018-04-26T14:20:51.592Z,95776.11
2018-04-26T14:23:20.747Z,95772.58
2018-04-26T14:25:49.926Z,95770.83
2018-04-26T14:28:18.158Z,95766.55
2018-04-26T14:30:47.157Z,95767.47
2018-04-26T14:33:16.191Z,95773.91
2018-04-26T14:35:44.447Z,95760.34
2018-04-26T14:38:12.687Z,95768.95
2018-04-26T14:40:41.691Z,95763.00
2018-04-26T14:43:10.769Z,95756.17
2018-04-26T14:45:38.961Z,95756.31
2018-04-26T14:48:07.961Z,95745.86
2018-04-26T14:50:36.447Z,95757.13
2018-04-26T14:53:04.694Z,95745.05
2018-04-26T14:55:33.689Z,95748.14
2018-04-26T14:58:02.795Z,95740.33
2018-04-26T15:00:31.803Z,95745.06
2018-04-26T15:03:00.085Z,95742.08
2018-04-26T15:05:28.387Z,95752.58
2018-04-26T15:07:56.560Z,95742.11
2018-04-26T15:10:24.793Z,95741.31
2018-04-26T15:12:53.853Z,95739.95
2018-04-26T15:15:22.112Z,95737.17
2018-04-26T15:17:50.346Z,95741.06
2018-04-26T15:20:18.594Z,95740.52
2018-04-26T15:22:47.631Z,95738.09
2018-04-26T15:25:15.871Z,95743.06
2018-04-26T15:27:45.193Z,95733.14
2018-04-26T15:30:13.425Z,95739.98
2018-04-26T15:32:41.670Z,95738.66
2018-04-26T15:35:09.933Z,95736.91
2018-04-26T15:37:38.162Z,95733.91
2018-04-26T15:40:06.398Z,95738.38
2018-04-26T15:42:34.647Z,95742.14
2018-04-26T15:45:02.907Z,95733.82
2018-04-26T15:47:31.910Z,95735.30
2018-04-26T15:50:00.195Z,95731.25
2018-04-26T15:52:51.801Z,95729.25
2018-04-26T15:59:03.974Z,95731.41
2018-04-26T16:05:34.343Z,95729.77
2018-04-26T16:08:25.912Z,95726.02
2018-04-26T16:11:17.458Z,95727.20
2018-04-26T16:14:05.987Z,95727.19
2018-04-26T16:16:49.499Z,95725.20
2018-04-26T16:19:41.869Z,95726.92
2018-04-26T16:25:53.737Z,95718.46
2018-04-26T16:28:45.511Z,95720.09
2018-04-26T16:31:37.357Z,95715.53
2018-04-26T16:34:23.309Z,95724.69
2018-04-26T16:37:09.953Z,95716.61
2018-04-26T16:39:38.193Z,95718.63
2018-04-26T16:42:07.226Z,95730.97
2018-04-26T16:44:35.478Z,95717.95
2018-04-26T16:47:03.706Z,95709.22
2018-04-26T16:49:31.986Z,95710.98
2018-04-26T16:52:00.218Z,95715.95
2018-04-26T16:54:28.462Z,95721.19
2018-04-26T16:56:57.471Z,95717.55
2018-04-26T16:59:25.713Z,95713.12
2018-04-26T17:01:54.717Z,95726.92
2018-04-26T17:04:23.884Z,95728.45
2018-04-26T17:06:51.973Z,95721.42
2018-04-26T17:09:20.226Z,95713.92
2018-04-26T17:11:48.464Z,95710.95
2018-04-26T17:14:16.713Z,95716.98
2018-04-26T17:16:45.734Z,95712.30
2018-04-26T17:19:13.966Z,95721.28
2018-04-26T17:21:42.210Z,95724.09
2018-04-26T17:24:10.459Z,95712.14
2018-04-26T17:26:38.714Z,95718.88
2018-04-26T17:29:07.767Z,95719.95
2018-04-26T17:31:35.994Z,95725.45
2018-04-26T17:34:04.245Z,95722.75
2018-04-26T17:36:33.254Z,95724.77
2018-04-26T17:39:01.530Z,95726.91
2018-04-26T17:41:30.828Z,95729.08
2018-04-26T17:43:59.829Z,95731.50
2018-04-26T17:46:28.089Z,95730.94
2018-04-26T17:48:57.102Z,95737.11
2018-04-26T17:51:25.344Z,95746.80
2018-04-26T17:53:54.353Z,95738.61
2018-04-26T17:56:23.351Z,95741.16
2018-04-26T17:58:52.370Z,95746.23
2018-04-26T18:01:20.921Z,95742.88
2018-04-26T18:03:49.990Z,95747.83
2018-04-26T18:06:18.163Z,95745.27
2018-04-26T18:08:46.414Z,95748.62
2018-04-26T18:11:14.666Z,95752.48
2018-04-26T18:13:42.889Z,95740.95
2018-04-26T18:16:12.659Z,95745.11
2018-04-26T18:18:40.911Z,95748.80
2018-04-26T18:21:09.148Z,95744.66
2018-04-26T18:23:38.916Z,95743.58
2018-04-26T18:26:07.154Z,95757.13
2018-04-26T18:28:36.191Z,95760.20
2018-04-26T18:31:04.512Z,95759.52
2018-04-26T18:33:32.742Z,95767.16
2018-04-26T18:36:01.109Z,95774.82
2018-04-26T18:38:30.020Z,95774.03
2018-04-26T18:40:58.388Z,95780.32
2018-04-26T18:43:26.679Z,95783.65
2018-04-26T18:45:54.917Z,95795.44
2018-04-26T18:48:23.183Z,95791.02
2018-04-26T18:50:52.203Z,95799.97
2018-04-26T18:53:20.458Z,95806.25
2018-04-26T18:55:49.468Z,95807.03
2018-04-26T18:58:17.697Z,95799.39
2018-04-26T19:00:45.946Z,95802.19
2018-04-26T19:03:14.285Z,95804.20
2018-04-26T19:05:42.681Z,95808.33
2018-04-26T19:08:10.901Z,95812.11
2018-04-26T19:10:39.136Z,95824.28
2018-04-26T19:13:07.386Z,95824.42
2018-04-26T19:15:36.399Z,95829.07
2018-04-26T19:18:04.643Z,95827.33
2018-04-26T19:20:33.646Z,95834.86
2018-04-26T19:23:02.686Z,95835.52
2018-04-26T19:25:30.918Z,95839.13
2018-04-26T19:27:59.934Z,95844.65
2018-04-26T19:30:28.178Z,95838.83
2018-04-26T19:32:57.193Z,95835.72
2018-04-26T19:35:25.447Z,95835.61
2018-04-26T19:37:54.453Z,95826.38
2018-04-26T19:40:22.708Z,95828.12
2018-04-26T19:42:51.715Z,95830.54
2018-04-26T19:45:20.812Z,95825.33
2018-04-26T19:47:49.066Z,95832.52
2018-04-26T19:50:17.309Z,95837.09
2018-04-26T19:52:45.626Z,95838.14
2018-04-26T19:55:14.725Z,95839.91
2018-04-26T19:57:43.748Z,95844.09
2018-04-26T20:00:13.026Z,95844.55
2018-04-26T20:02:42.023Z,95842.93
2018-04-26T20:05:10.270Z,95831.47
2018-04-26T20:07:40.038Z,95846.86
2018-04-26T20:10:08.266Z,95846.61
2018-04-26T20:12:37.366Z,95847.30
2018-04-26T20:15:06.395Z,95847.39
2018-04-26T20:17:34.649Z,95843.28
2018-04-26T20:20:02.882Z,95841.67
2018-04-26T20:22:31.126Z,95840.77
2018-04-26T20:24:59.362Z,95845.06
2018-04-26T20:27:28.396Z,95839.16
2018-04-26T20:29:56.640Z,95836.80
2018-04-26T20:32:25.652Z,95840.70
2018-04-26T20:34:53.898Z,95834.56
2018-04-26T20:37:22.901Z,95837.52
2018-04-26T20:39:51.414Z,95832.56
2018-04-26T20:42:19.658Z,95830.70
2018-04-26T20:44:48.679Z,95837.13
2018-04-26T20:47:17.017Z,95838.17
2018-04-26T20:49:46.043Z,95840.73
2018-04-26T20:52:14.290Z,95840.86
2018-04-26T20:54:43.289Z,95837.51
2018-04-26T20:57:11.878Z,95836.42
2018-04-26T20:59:40.133Z,95833.09
2018-04-26T21:02:09.147Z,95834.75
2018-04-26T21:04:37.391Z,95831.23
2018-04-26T21:07:05.638Z,95834.34
2018-04-26T21:09:33.889Z,95835.38
2018-04-26T21:12:02.119Z,95833.11
2018-04-26T21:14:30.357Z,95834.67
2018-04-26T21:16:58.898Z,95835.98
2018-04-26T21:19:27.992Z,95832.66
2018-04-26T21:24:31.556Z,95832.12
2018-04-26T21:26:59.815Z,95829.41
2018-04-26T21:29:28.166Z,95833.12
2018-04-26T21:31:56.398Z,95838.07
2018-04-26T21:34:24.649Z,95833.80
2018-04-26T21:36:52.913Z,95838.46
2018-04-26T21:39:21.474Z,95840.13
2018-04-26T21:41:50.470Z,95838.48
2018-04-26T21:44:18.709Z,95841.05
2018-04-26T21:46:46.962Z,95841.85
2018-04-26T21:49:14.557Z,95847.36
2018-04-26T21:51:49.031Z,95853.71
2018-04-26T21:54:22.938Z,95851.42
2018-04-26T21:56:56.685Z,95854.77
2018-04-26T21:59:30.721Z,95856.55
2018-04-26T22:02:05.338Z,95856.25
2018-04-26T22:04:33.833Z,95850.47
2018-04-26T22:07:02.081Z,95854.74
2018-04-26T22:09:31.085Z,95848.52
2018-04-26T22:12:00.306Z,95850.81
2018-04-26T22:14:28.553Z,95852.39
2018-04-26T22:16:56.793Z,95849.19
2018-04-26T22:19:25.050Z,95852.24
2018-04-26T22:21:53.288Z,95846.48
2018-04-26T22:24:22.295Z,95835.51
2018-04-26T22:26:50.545Z,95832.98
2018-04-26T22:29:18.773Z,95833.33
2018-04-26T22:31:47.013Z,95831.70
2018-04-26T22:34:15.263Z,95826.11
2018-04-26T22:36:43.570Z,95840.53
2018-04-26T22:39:11.813Z,95834.63
2018-04-26T22:41:40.051Z,95819.06
2018-04-26T22:44:08.294Z,95822.31
2018-04-26T22:46:36.555Z,95821.80
2018-04-26T22:49:06.482Z,95828.52
2018-04-26T22:51:35.481Z,95826.81
2018-04-26T22:54:03.714Z,95819.34
2018-04-26T22:56:32.736Z,95823.03
2018-04-26T22:59:01.738Z,95814.75
2018-04-26T23:01:30.884Z,95813.15
2018-04-26T23:03:59.129Z,95813.08
2018-04-26T23:06:27.386Z,95805.22
2018-04-26T23:08:56.383Z,95807.59
2018-04-26T23:11:24.636Z,95812.12
2018-04-26T23:13:52.870Z,95808.52
2018-04-26T23:16:21.115Z,95814.39
2018-04-26T23:18:49.346Z,95808.56
2018-04-26T23:21:17.589Z,95805.66
2018-04-26T23:23:46.034Z,95813.31
2018-04-26T23:26:15.042Z,95814.53
2018-04-26T23:28:43.274Z,95813.12
2018-04-26T23:31:11.531Z,95809.45
2018-04-26T23:33:39.786Z,95807.30
2018-04-26T23:36:08.263Z,95801.65
2018-04-26T23:38:36.489Z,95808.45
2018-04-26T23:41:04.726Z,95803.66
2018-04-26T23:43:32.969Z,95795.58
2018-04-26T23:46:01.203Z,95792.61
2018-04-26T23:48:29.442Z,95798.37
2018-04-26T23:50:57.990Z,95796.41
2018-04-26T23:53:26.994Z,95790.31
2018-04-26T23:55:55.354Z,95788.56
2018-04-26T23:58:23.838Z,95784.55
